Time;durP1;ratioP1;P1;durP2;ratioP2;P2;SDS_P1;SDS_P2;PMS_P1;PMS_P2;Temp;Humidity;BMP_temperature;BMP_pressure;BME280_temperature;BME280_humidity;BME280_pressure;Samples;Min_cycle;Max_cycle;Signal;HPM_P1;HPM_P2
2021/07/11 00:00:36;;;;;;;3.80;2.00;;;16.50;99.90;;;;;;5139910;27;20214;-37
2021/07/11 00:03:01;;;;;;;6.07;2.47;;;16.50;99.90;;;;;;5141552;27;20175;-38
2021/07/11 00:05:27;;;;;;;2.57;2.37;;;16.50;99.90;;;;;;5141094;27;20179;-38
2021/07/11 00:07:53;;;;;;;5.27;2.30;;;16.40;99.90;;;;;;5142203;27;20494;-37
2021/07/11 00:10:19;;;;;;;4.00;2.70;;;16.30;99.90;;;;;;5141497;27;20555;-38
2021/07/11 00:12:48;;;;;;;2.40;2.17;;;16.30;99.90;;;;;;5141918;27;20405;-38
2021/07/11 00:15:16;;;;;;;2.73;2.37;;;16.20;99.90;;;;;;5142267;27;20431;-37
2021/07/11 00:17:43;;;;;;;4.20;3.40;;;16.20;99.90;;;;;;5141861;27;20399;-37
2021/07/11 00:20:13;;;;;;;3.40;2.50;;;16.20;99.90;;;;;;5141785;27;20436;-37
2021/07/11 00:22:39;;;;;;;3.40;2.83;;;16.20;99.90;;;;;;5141220;27;20427;-37
2021/07/11 00:25:06;;;;;;;2.90;2.60;;;16.30;99.90;;;;;;5141777;27;20428;-37
2021/07/11 00:27:32;;;;;;;3.17;2.87;;;16.20;99.90;;;;;;5141829;27;20412;-37
2021/07/11 00:29:58;;;;;;;2.40;2.07;;;16.20;99.90;;;;;;5141758;27;20517;-37
2021/07/11 00:32:24;;;;;;;2.77;2.50;;;16.20;99.90;;;;;;5141642;27;20190;-38
2021/07/11 00:34:49;;;;;;;2.60;2.17;;;16.20;99.90;;;;;;5142176;27;20849;-39
2021/07/11 00:37:15;;;;;;;3.07;2.30;;;16.20;99.90;;;;;;5141789;27;20266;-38
2021/07/11 00:39:40;;;;;;;3.03;2.73;;;16.20;99.90;;;;;;5141101;27;20575;-38
2021/07/11 00:42:10;;;;;;;2.53;2.10;;;16.20;99.90;;;;;;5141623;27;20167;-38
2021/07/11 00:44:36;;;;;;;2.40;2.20;;;16.20;99.90;;;;;;5141159;27;20557;-38
2021/07/11 00:47:02;;;;;;;2.63;2.43;;;16.20;99.90;;;;;;5141475;27;20670;-37
2021/07/11 00:49:27;;;;;;;5.47;2.40;;;16.30;99.90;;;;;;5122967;27;20191;-37
2021/07/11 00:51:53;;;;;;;2.67;2.47;;;16.30;99.90;;;;;;5122815;27;20202;-38
2021/07/11 00:54:21;;;;;;;2.60;2.40;;;16.20;99.90;;;;;;5139487;27;20511;-38
2021/07/11 00:56:47;;;;;;;3.23;2.83;;;16.20;99.90;;;;;;5121339;27;20321;-37
2021/07/11 00:59:13;;;;;;;3.00;2.50;;;16.20;99.90;;;;;;5139345;27;20519;-38
2021/07/11 01:01:49;;;;;;;2.63;2.20;;;16.30;99.90;;;;;;5140195;27;20180;-38
2021/07/11 01:04:21;;;;;;;2.63;2.43;;;16.20;99.90;;;;;;5138799;27;20706;-37
2021/07/11 01:07:34;;;;;;;2.83;2.43;;;16.20;99.90;;;;;;5120830;27;20512;-37
2021/07/11 01:10:21;;;;;;;2.87;2.67;;;16.20;99.90;;;;;;5138690;27;20475;-37
2021/07/11 01:12:48;;;;;;;5.27;2.60;;;16.20;99.90;;;;;;5138231;27;20551;-38
2021/07/11 01:15:14;;;;;;;3.10;2.33;;;16.20;99.90;;;;;;5121290;27;20421;-38
2021/07/11 01:17:41;;;;;;;5.50;2.63;;;16.10;99.90;;;;;;5120264;27;20423;-37
2021/07/11 01:20:38;;;;;;;6.60;2.60;;;16.10;99.90;;;;;;5120667;27;20604;-37
2021/07/11 01:23:07;;;;;;;3.37;2.80;;;16.10;99.90;;;;;;5121715;27;20408;-37
2021/07/11 01:25:34;;;;;;;3.30;2.40;;;16.10;99.90;;;;;;5121286;27;20821;-38
2021/07/11 01:28:03;;;;;;;3.17;2.73;;;16.10;99.90;;;;;;5139411;27;20424;-38
2021/07/11 01:30:28;;;;;;;4.40;3.00;;;16.10;99.90;;;;;;5121336;27;20472;-38
2021/07/11 01:32:55;;;;;;;5.03;2.63;;;16.10;99.90;;;;;;5121234;27;20409;-37
2021/07/11 01:35:20;;;;;;;4.30;2.90;;;16.10;99.90;;;;;;5120476;27;20512;-37
2021/07/11 01:37:47;;;;;;;3.33;2.87;;;16.10;99.90;;;;;;5138674;27;20630;-37
2021/07/11 01:40:13;;;;;;;2.50;2.30;;;16.10;99.90;;;;;;5138958;27;20438;-37
2021/07/11 01:42:39;;;;;;;2.60;2.40;;;16.00;99.90;;;;;;5139444;27;20424;-37
2021/07/11 01:45:06;;;;;;;3.30;2.73;;;16.00;99.90;;;;;;5120727;27;20424;-38
2021/07/11 01:47:33;;;;;;;2.37;2.10;;;16.00;99.90;;;;;;5139505;27;20178;-37
2021/07/11 01:50:00;;;;;;;2.70;2.50;;;16.00;99.90;;;;;;5138771;27;20734;-38
2021/07/11 01:52:26;;;;;;;3.13;2.83;;;15.90;99.90;;;;;;5138560;27;20697;-37
2021/07/11 01:54:52;;;;;;;3.47;3.17;;;15.90;99.90;;;;;;5137895;27;20531;-38
2021/07/11 01:57:18;;;;;;;3.20;2.90;;;15.90;99.90;;;;;;5138341;27;20500;-38
2021/07/11 01:59:44;;;;;;;3.70;3.20;;;15.90;99.90;;;;;;5138218;27;20418;-38
2021/07/11 02:02:09;;;;;;;3.30;3.00;;;15.90;99.90;;;;;;5138554;27;20278;-36
2021/07/11 02:04:35;;;;;;;3.20;3.00;;;15.90;99.90;;;;;;5137704;27;20202;-38
2021/07/11 02:07:00;;;;;;;3.90;3.23;;;15.80;99.90;;;;;;5139163;27;20242;-39
2021/07/11 02:09:26;;;;;;;3.17;2.87;;;15.90;99.90;;;;;;5120481;27;20552;-37
2021/07/11 02:11:52;;;;;;;3.27;2.70;;;15.80;99.90;;;;;;5138796;27;20198;-38
2021/07/11 02:14:24;;;;;;;3.03;2.73;;;15.80;99.90;;;;;;5120322;27;20402;-38
2021/07/11 02:17:09;;;;;;;6.57;3.57;;;15.80;99.90;;;;;;5119353;27;20171;-38
2021/07/11 02:19:37;;;;;;;3.43;3.00;;;15.80;99.90;;;;;;5119464;27;20694;-37
2021/07/11 02:22:03;;;;;;;2.70;2.50;;;15.70;99.90;;;;;;5137175;27;20410;-37
2021/07/11 02:24:30;;;;;;;4.03;2.70;;;15.80;99.90;;;;;;5136744;27;20405;-37
2021/07/11 02:26:56;;;;;;;4.70;3.30;;;15.80;99.90;;;;;;5138444;27;20655;-36
2021/07/11 02:29:24;;;;;;;3.47;3.17;;;15.80;99.90;;;;;;5119285;27;20412;-37
2021/07/11 02:31:50;;;;;;;3.33;3.03;;;15.70;99.90;;;;;;5119520;27;20263;-36
2021/07/11 02:34:15;;;;;;;3.60;2.70;;;15.70;99.90;;;;;;5119567;27;20412;-38
2021/07/11 02:36:48;;;;;;;2.83;2.63;;;15.70;99.90;;;;;;5137268;27;20189;-42
2021/07/11 02:39:17;;;;;;;3.20;2.90;;;15.70;99.90;;;;;;5136814;27;20190;-42
2021/07/11 02:41:59;;;;;;;3.80;3.10;;;15.70;99.90;;;;;;5136531;27;20466;-38
2021/07/11 02:44:25;;;;;;;3.83;3.43;;;15.60;99.90;;;;;;5136909;27;20495;-43
2021/07/11 02:47:00;;;;;;;6.00;3.00;;;15.60;99.90;;;;;;5101524;28;20451;-40
2021/07/11 02:49:27;;;;;;;3.10;2.80;;;15.70;99.90;;;;;;5118924;28;20408;-41
2021/07/11 02:51:55;;;;;;;3.80;2.67;;;15.60;99.90;;;;;;5117208;28;20543;-43
2021/07/11 02:54:24;;;;;;;3.27;2.97;;;15.70;99.90;;;;;;5137165;28;20527;-42
2021/07/11 02:56:54;;;;;;;4.60;3.17;;;15.60;99.90;;;;;;5118535;28;20472;-39
2021/07/11 02:59:21;;;;;;;3.70;3.40;;;15.60;99.90;;;;;;5118514;28;20741;-40
2021/07/11 03:01:47;;;;;;;3.60;3.30;;;15.60;99.90;;;;;;5119034;28;20456;-40
2021/07/11 03:04:14;;;;;;;4.83;3.80;;;15.60;99.90;;;;;;5119285;28;20404;-42
2021/07/11 03:06:40;;;;;;;3.27;2.97;;;15.50;99.90;;;;;;5119360;28;20725;-41
2021/07/11 03:09:06;;;;;;;4.00;3.60;;;15.60;99.90;;;;;;5137377;28;20499;-42
2021/07/11 03:11:32;;;;;;;4.10;3.40;;;15.50;99.90;;;;;;5137454;28;20206;-42
2021/07/11 03:13:59;;;;;;;4.30;3.90;;;15.50;99.90;;;;;;5118818;28;20485;-42
2021/07/11 03:16:25;;;;;;;3.87;3.47;;;15.50;99.90;;;;;;5119223;28;20428;-41
2021/07/11 03:18:53;;;;;;;4.67;3.30;;;15.50;99.90;;;;;;5119258;28;20409;-42
2021/07/11 03:21:22;;;;;;;4.13;3.43;;;15.50;99.90;;;;;;5137696;28;20440;-40
2021/07/11 03:23:48;;;;;;;4.90;3.70;;;15.50;99.90;;;;;;5137018;28;20501;-39
2021/07/11 03:26:14;;;;;;;4.33;3.60;;;15.40;99.90;;;;;;5119088;28;20824;-41
2021/07/11 03:28:42;;;;;;;4.03;3.40;;;15.50;99.90;;;;;;5137667;28;20423;-40
2021/07/11 03:31:09;;;;;;;3.97;3.57;;;15.50;99.90;;;;;;5119231;28;20427;-42
2021/07/11 03:33:38;;;;;;;7.50;3.40;;;15.50;99.90;;;;;;5119229;27;20461;-42
2021/07/11 03:36:04;;;;;;;3.97;3.50;;;15.50;99.90;;;;;;5141223;27;20519;-41
2021/07/11 03:38:35;;;;;;;3.70;3.40;;;15.50;99.90;;;;;;5141262;27;20532;-41
2021/07/11 03:41:02;;;;;;;6.17;4.60;;;15.40;99.90;;;;;;5123257;27;20715;-41
2021/07/11 03:43:28;;;;;;;4.30;3.33;;;15.40;99.90;;;;;;5140532;27;20425;-42
2021/07/11 03:45:56;;;;;;;3.90;3.50;;;15.40;99.90;;;;;;5122308;27;20483;-41
2021/07/11 03:48:33;;;;;;;4.37;3.83;;;15.40;99.90;;;;;;5122986;27;20424;-41
2021/07/11 03:51:02;;;;;;;5.10;4.10;;;15.40;99.90;;;;;;5122603;27;20467;-42
2021/07/11 03:53:31;;;;;;;4.80;4.30;;;15.40;99.90;;;;;;5141142;27;20451;-41
2021/07/11 03:55:58;;;;;;;5.60;3.60;;;15.50;99.90;;;;;;5140890;27;20471;-40
2021/07/11 03:58:24;;;;;;;4.73;3.70;;;15.50;99.90;;;;;;5122666;27;20428;-40
2021/07/11 04:00:52;;;;;;;4.37;3.97;;;15.50;99.90;;;;;;5122968;27;20420;-42
2021/07/11 04:03:19;;;;;;;3.93;3.50;;;15.50;99.90;;;;;;5140667;27;20437;-38
2021/07/11 04:05:45;;;;;;;3.43;3.00;;;15.60;99.90;;;;;;5140780;27;20432;-40
2021/07/11 04:08:16;;;;;;;4.33;3.40;;;15.50;99.90;;;;;;5122508;27;20412;-41
2021/07/11 04:10:42;;;;;;;4.10;3.30;;;15.50;99.90;;;;;;5122556;27;20477;-41
2021/07/11 04:13:08;;;;;;;3.67;3.30;;;15.60;99.90;;;;;;5140625;27;20413;-41
2021/07/11 04:15:34;;;;;;;3.80;3.40;;;15.60;99.90;;;;;;5139324;27;20503;-41
2021/07/11 04:18:06;;;;;;;4.63;3.80;;;15.60;99.90;;;;;;5140846;27;20474;-41
2021/07/11 04:20:32;;;;;;;3.70;3.20;;;15.50;99.90;;;;;;5140301;27;20501;-41
2021/07/11 04:23:00;;;;;;;3.77;3.47;;;15.60;99.90;;;;;;5140298;27;20412;-42
2021/07/11 04:25:29;;;;;;;3.67;3.37;;;15.60;99.90;;;;;;5122455;27;20437;-41
2021/07/11 04:27:56;;;;;;;4.20;3.80;;;15.70;99.90;;;;;;5122647;27;20550;-41
2021/07/11 04:30:22;;;;;;;5.73;3.70;;;15.80;99.90;;;;;;5119412;27;20762;-41
2021/07/11 04:32:48;;;;;;;3.90;3.60;;;15.70;99.90;;;;;;5119033;27;20841;-41
2021/07/11 04:35:14;;;;;;;4.10;3.50;;;15.80;99.90;;;;;;5137148;27;20850;-43
2021/07/11 04:37:40;;;;;;;4.17;3.77;;;15.70;99.90;;;;;;5137324;27;20199;-41
2021/07/11 04:40:06;;;;;;;4.43;3.50;;;15.70;99.90;;;;;;5136983;27;20479;-41
2021/07/11 04:42:32;;;;;;;4.00;3.40;;;15.70;99.90;;;;;;5139682;27;20217;-41
2021/07/11 04:45:01;;;;;;;4.27;3.83;;;15.70;99.90;;;;;;5139684;27;20744;-41
2021/07/11 04:47:27;;;;;;;4.43;3.83;;;15.80;99.90;;;;;;5139327;27;20179;-41
2021/07/11 04:49:52;;;;;;;4.60;3.10;;;15.80;99.90;;;;;;5140104;27;20501;-40
2021/07/11 04:52:18;;;;;;;4.23;3.50;;;15.80;99.90;;;;;;5139610;27;20171;-40
2021/07/11 04:54:44;;;;;;;4.10;3.70;;;15.80;99.90;;;;;;5140203;27;21690;-42
2021/07/11 04:57:09;;;;;;;4.80;4.30;;;15.80;99.90;;;;;;5139664;27;20465;-39
2021/07/11 04:59:35;;;;;;;4.73;3.70;;;15.80;99.90;;;;;;5139925;27;20319;-41
2021/07/11 05:02:01;;;;;;;3.63;3.33;;;15.90;99.90;;;;;;5139921;27;20178;-39
2021/07/11 05:04:27;;;;;;;4.53;3.80;;;15.90;99.90;;;;;;5139587;27;20545;-40
2021/07/11 05:06:52;;;;;;;4.13;3.73;;;16.00;99.90;;;;;;5139078;27;20257;-39
2021/07/11 05:09:18;;;;;;;4.30;3.53;;;16.00;99.90;;;;;;5139987;27;20550;-42
2021/07/11 05:11:44;;;;;;;4.30;3.90;;;16.00;99.90;;;;;;5139757;27;20218;-40
2021/07/11 05:14:09;;;;;;;5.57;4.20;;;16.10;99.90;;;;;;5140100;27;20175;-40
2021/07/11 05:16:35;;;;;;;3.77;3.37;;;16.20;99.90;;;;;;5139400;27;20183;-41
2021/07/11 05:19:02;;;;;;;4.70;4.00;;;16.30;99.90;;;;;;5121478;27;20177;-41
2021/07/11 05:21:29;;;;;;;5.83;3.80;;;16.40;99.90;;;;;;5139504;27;20182;-42
2021/07/11 05:23:56;;;;;;;3.90;3.10;;;16.50;99.90;;;;;;5139187;27;20762;-41
2021/07/11 05:26:22;;;;;;;3.63;3.27;;;16.70;99.90;;;;;;5138348;27;20592;-42
2021/07/11 05:28:47;;;;;;;4.30;3.23;;;16.80;99.90;;;;;;5139040;27;20504;-42
2021/07/11 05:31:13;;;;;;;2.97;2.70;;;17.00;99.90;;;;;;5138779;27;20488;-41
2021/07/11 05:33:39;;;;;;;4.47;3.27;;;17.10;99.90;;;;;;5139045;27;20529;-42
2021/07/11 05:36:07;;;;;;;4.40;3.10;;;17.20;99.90;;;;;;5138735;27;20711;-40
2021/07/11 05:38:34;;;;;;;3.13;2.77;;;17.40;99.90;;;;;;5138425;27;20434;-42
2021/07/11 05:40:59;;;;;;;3.63;3.20;;;17.40;99.90;;;;;;5138805;27;20434;-42
2021/07/11 05:43:25;;;;;;;3.17;2.87;;;17.40;99.90;;;;;;5138445;27;20416;-42
2021/07/11 05:45:50;;;;;;;4.83;3.43;;;17.40;99.90;;;;;;5138247;27;20210;-39
2021/07/11 05:48:16;;;;;;;3.60;3.03;;;17.40;99.90;;;;;;5138929;27;20377;-41
2021/07/11 05:50:42;;;;;;;3.40;3.10;;;17.30;99.90;;;;;;5138249;27;20234;-41
2021/07/11 05:53:10;;;;;;;3.20;2.77;;;17.20;99.90;;;;;;5138622;27;20175;-42
2021/07/11 05:55:37;;;;;;;3.50;3.20;;;17.10;99.90;;;;;;5138489;27;20306;-42
2021/07/11 05:58:03;;;;;;;4.00;2.73;;;17.30;99.90;;;;;;5138546;27;20415;-42
2021/07/11 06:00:29;;;;;;;3.70;3.40;;;17.40;99.90;;;;;;5139003;27;20682;-41
2021/07/11 06:02:54;;;;;;;4.13;3.30;;;17.40;99.90;;;;;;5138186;27;20710;-42
2021/07/11 06:05:20;;;;;;;3.93;3.37;;;17.50;99.90;;;;;;5138182;27;20186;-42
2021/07/11 06:07:45;;;;;;;3.57;3.27;;;17.70;99.90;;;;;;5138301;27;20183;-44
2021/07/11 06:10:11;;;;;;;3.03;2.73;;;17.90;99.90;;;;;;5138141;27;20203;-43
2021/07/11 06:12:37;;;;;;;3.97;2.90;;;18.30;99.90;;;;;;5138447;27;20259;-44
2021/07/11 06:15:05;;;;;;;3.57;2.90;;;18.60;99.80;;;;;;5137992;27;20465;-41
2021/07/11 06:17:32;;;;;;;5.87;3.30;;;18.30;99.90;;;;;;5138064;27;20171;-41
2021/07/11 06:20:08;;;;;;;3.20;2.90;;;18.40;98.80;;;;;;5138180;27;20856;-41
2021/07/11 06:22:35;;;;;;;5.63;2.70;;;18.20;99.10;;;;;;5137688;27;20416;-41
2021/07/11 06:25:06;;;;;;;3.00;2.70;;;18.20;98.60;;;;;;5137819;27;20427;-42
2021/07/11 06:27:41;;;;;;;3.30;3.00;;;18.20;98.20;;;;;;5136675;27;20467;-42
2021/07/11 06:30:09;;;;;;;4.20;3.10;;;18.40;98.60;;;;;;5137729;27;20718;-41
2021/07/11 06:32:36;;;;;;;3.17;2.50;;;18.60;98.00;;;;;;5137497;27;20695;-41
2021/07/11 06:35:03;;;;;;;3.60;3.00;;;18.80;97.30;;;;;;5137700;27;20477;-43
2021/07/11 06:37:29;;;;;;;4.50;3.20;;;18.90;97.40;;;;;;5137740;27;20807;-42
2021/07/11 06:39:54;;;;;;;3.50;3.13;;;19.00;96.70;;;;;;5137756;27;20693;-42
2021/07/11 06:42:20;;;;;;;4.80;2.63;;;18.90;96.90;;;;;;5137638;27;20312;-42
2021/07/11 06:44:45;;;;;;;2.60;2.40;;;19.00;96.40;;;;;;5119614;27;20174;-43
2021/07/11 06:47:12;;;;;;;3.23;2.93;;;18.80;96.30;;;;;;5137295;27;20163;-43
2021/07/11 06:49:38;;;;;;;4.97;3.07;;;18.60;97.10;;;;;;5131262;28;20555;-41
2021/07/11 06:52:04;;;;;;;3.30;3.00;;;18.50;97.10;;;;;;5125047;28;20457;-42
2021/07/11 06:54:30;;;;;;;3.73;2.87;;;18.50;96.80;;;;;;5098437;28;20285;-42
2021/07/11 06:56:56;;;;;;;3.03;2.50;;;18.20;96.70;;;;;;5097943;28;20510;-41
2021/07/11 06:59:22;;;;;;;5.07;3.10;;;18.20;96.60;;;;;;5116148;28;20241;-41
2021/07/11 07:01:48;;;;;;;3.60;2.83;;;18.30;97.00;;;;;;5116097;28;20425;-44
2021/07/11 07:04:13;;;;;;;4.30;3.00;;;18.60;96.50;;;;;;5116026;28;20252;-42
2021/07/11 07:06:39;;;;;;;3.17;2.87;;;18.60;96.80;;;;;;5098925;28;20433;-41
2021/07/11 07:09:05;;;;;;;3.33;3.03;;;18.80;96.50;;;;;;5118121;28;20501;-42
2021/07/11 07:11:30;;;;;;;2.90;2.60;;;18.90;96.00;;;;;;5121078;28;20302;-42
2021/07/11 07:13:56;;;;;;;2.50;2.30;;;19.40;95.90;;;;;;5120974;28;20175;-42
2021/07/11 07:16:22;;;;;;;2.90;2.60;;;19.50;95.70;;;;;;5119885;28;20283;-43
2021/07/11 07:18:48;;;;;;;3.73;2.90;;;19.80;94.80;;;;;;5121348;27;20463;-42
2021/07/11 07:21:14;;;;;;;3.77;2.77;;;19.80;94.60;;;;;;5141272;27;20440;-41
2021/07/11 07:23:39;;;;;;;4.50;3.50;;;19.80;94.60;;;;;;5141353;27;20178;-43
2021/07/11 07:26:06;;;;;;;2.63;2.40;;;19.40;94.20;;;;;;5141575;27;20432;-41
2021/07/11 07:28:32;;;;;;;4.53;3.30;;;19.50;95.10;;;;;;5141861;27;20175;-42
2021/07/11 07:30:58;;;;;;;2.97;2.70;;;19.60;94.70;;;;;;5123027;27;20479;-43
2021/07/11 07:33:23;;;;;;;4.70;2.83;;;19.90;94.80;;;;;;5141390;27;20266;-42
2021/07/11 07:35:49;;;;;;;3.33;2.77;;;20.10;94.70;;;;;;5141214;27;20258;-42
2021/07/11 07:38:16;;;;;;;2.40;2.20;;;20.50;94.10;;;;;;5141398;27;20183;-42
2021/07/11 07:40:42;;;;;;;3.37;3.07;;;20.80;93.10;;;;;;5123353;27;20183;-43
2021/07/11 07:43:08;;;;;;;3.10;2.67;;;20.90;93.20;;;;;;5140768;27;20400;-43
2021/07/11 07:45:33;;;;;;;2.70;2.23;;;21.40;92.60;;;;;;5140843;27;20278;-43
2021/07/11 07:47:59;;;;;;;3.03;2.73;;;21.40;91.90;;;;;;5141168;27;20183;-43
2021/07/11 07:50:24;;;;;;;2.70;2.50;;;22.10;91.70;;;;;;5122450;27;20351;-43
2021/07/11 07:52:50;;;;;;;4.03;2.40;;;22.30;90.50;;;;;;5140355;27;20270;-43
2021/07/11 07:55:16;;;;;;;2.97;2.70;;;22.30;90.60;;;;;;5140665;27;20183;-43
2021/07/11 07:57:42;;;;;;;3.37;2.53;;;22.70;90.30;;;;;;5140836;27;20412;-43
2021/07/11 08:00:13;;;;;;;5.10;2.67;;;23.00;89.30;;;;;;5140233;27;20186;-43
2021/07/11 08:02:40;;;;;;;2.53;2.33;;;22.80;89.50;;;;;;5140263;27;20399;-43
2021/07/11 08:05:06;;;;;;;2.90;2.33;;;22.90;87.60;;;;;;5140506;27;20429;-44
2021/07/11 08:07:32;;;;;;;3.97;3.57;;;21.90;90.60;;;;;;5140608;27;20421;-44
2021/07/11 08:09:57;;;;;;;2.50;2.30;;;21.30;90.80;;;;;;5139171;27;20443;-45
2021/07/11 08:12:23;;;;;;;2.90;2.60;;;20.80;92.10;;;;;;5139757;27;20171;-44
2021/07/11 08:14:49;;;;;;;2.70;2.27;;;20.60;92.30;;;;;;5139291;27;20247;-45
2021/07/11 08:17:15;;;;;;;3.63;2.50;;;20.70;92.60;;;;;;5138144;27;20222;-44
2021/07/11 08:19:42;;;;;;;3.70;2.77;;;20.40;92.90;;;;;;5136696;27;20641;-44
2021/07/11 08:22:07;;;;;;;3.23;2.37;;;19.60;93.40;;;;;;5137280;27;20516;-44
2021/07/11 08:24:33;;;;;;;3.00;2.73;;;19.60;93.30;;;;;;5138096;27;20723;-44
2021/07/11 08:26:59;;;;;;;4.07;2.43;;;19.40;94.10;;;;;;5139203;27;20432;-44
2021/07/11 08:29:26;;;;;;;4.90;2.67;;;19.60;94.10;;;;;;5137398;27;20413;-44
2021/07/11 08:31:52;;;;;;;3.17;2.63;;;19.60;94.20;;;;;;5139221;27;20203;-42
2021/07/11 08:34:18;;;;;;;2.80;2.40;;;19.70;94.30;;;;;;5121126;27;20516;-44
2021/07/11 08:36:44;;;;;;;3.27;2.83;;;19.80;94.10;;;;;;5137426;27;20341;-43
2021/07/11 08:39:10;;;;;;;3.53;2.73;;;19.50;94.60;;;;;;5138609;27;20500;-42
2021/07/11 08:41:36;;;;;;;2.73;2.53;;;19.90;94.60;;;;;;5120395;27;20248;-44
2021/07/11 08:44:03;;;;;;;3.33;2.70;;;20.20;93.60;;;;;;5139092;27;20175;-44
2021/07/11 08:46:28;;;;;;;2.70;2.50;;;20.40;93.00;;;;;;5139582;27;20822;-44
2021/07/11 08:48:54;;;;;;;3.53;2.50;;;20.00;93.80;;;;;;5139432;27;20717;-43
2021/07/11 08:51:20;;;;;;;2.57;2.37;;;20.20;93.70;;;;;;5138092;27;20210;-43
2021/07/11 08:53:47;;;;;;;2.50;2.30;;;20.10;92.30;;;;;;5140046;27;20236;-42
2021/07/11 08:56:25;;;;;;;2.80;2.37;;;20.40;92.90;;;;;;5121076;27;20741;-43
2021/07/11 08:58:56;;;;;;;2.27;2.07;;;20.60;92.10;;;;;;5139597;27;20408;-43
2021/07/11 09:01:24;;;;;;;3.50;2.27;;;20.20;91.80;;;;;;5120936;27;20747;-43
2021/07/11 09:04:06;;;;;;;2.90;2.43;;;20.80;91.10;;;;;;5139472;27;20698;-43
2021/07/11 09:06:45;;;;;;;3.03;2.53;;;21.40;90.60;;;;;;5139042;27;20849;-42
2021/07/11 09:09:12;;;;;;;2.30;2.10;;;22.20;89.30;;;;;;5138862;27;20511;-44
2021/07/11 09:11:52;;;;;;;2.70;2.50;;;22.20;87.00;;;;;;5139134;27;20468;-44
2021/07/11 09:14:20;;;;;;;2.97;2.50;;;22.50;87.80;;;;;;5139543;27;20415;-43
2021/07/11 09:16:46;;;;;;;3.80;2.63;;;23.20;86.50;;;;;;5139140;27;20428;-43
2021/07/11 09:19:21;;;;;;;2.30;2.07;;;23.00;86.30;;;;;;5138972;27;20444;-43
2021/07/11 09:21:59;;;;;;;2.50;2.30;;;23.40;84.60;;;;;;5138738;27;20435;-42
2021/07/11 09:24:27;;;;;;;2.13;1.90;;;22.90;84.40;;;;;;5136809;27;20416;-43
2021/07/11 09:27:11;;;;;;;2.00;1.70;;;22.40;85.20;;;;;;5137510;27;20476;-44
2021/07/11 09:29:39;;;;;;;2.73;2.00;;;23.00;85.50;;;;;;5136333;27;20409;-42
2021/07/11 09:32:06;;;;;;;2.10;1.90;;;22.40;87.30;;;;;;5117007;27;20882;-44
2021/07/11 09:34:33;;;;;;;2.57;2.30;;;23.20;84.80;;;;;;5135377;27;20521;-44
2021/07/11 09:37:06;;;;;;;2.60;2.00;;;22.90;83.60;;;;;;5135296;27;20415;-42
2021/07/11 09:39:34;;;;;;;3.10;2.60;;;22.60;85.10;;;;;;5136493;27;20412;-42
2021/07/11 09:42:01;;;;;;;3.03;2.50;;;21.80;86.40;;;;;;5135813;27;20789;-43
2021/07/11 09:44:43;;;;;;;2.50;2.30;;;21.30;88.40;;;;;;5118203;27;20439;-43
2021/07/11 09:47:20;;;;;;;2.40;2.20;;;21.90;89.20;;;;;;5118304;27;20798;-42
2021/07/11 09:50:23;;;;;;;3.23;2.93;;;22.60;87.60;;;;;;5138389;27;20512;-43
2021/07/11 09:52:58;;;;;;;3.30;3.00;;;23.00;84.00;;;;;;5136628;27;20424;-42
2021/07/11 09:55:28;;;;;;;2.20;2.00;;;23.10;83.70;;;;;;5137482;27;20472;-42
2021/07/11 09:57:56;;;;;;;3.23;2.40;;;22.70;84.10;;;;;;5137985;27;20515;-43
2021/07/11 10:00:29;;;;;;;2.80;2.40;;;22.60;85.40;;;;;;5119194;27;20436;-44
2021/07/11 10:03:04;;;;;;;4.10;2.80;;;22.80;85.00;;;;;;5137598;27;20465;-43
2021/07/11 10:05:30;;;;;;;4.67;2.57;;;23.20;84.60;;;;;;5137556;27;20752;-42
2021/07/11 10:07:56;;;;;;;2.70;2.50;;;23.40;84.40;;;;;;5136505;27;20405;-43
2021/07/11 10:10:33;;;;;;;2.40;2.20;;;23.40;84.20;;;;;;5134525;27;20476;-43
2021/07/11 10:13:00;;;;;;;3.37;2.53;;;23.30;84.00;;;;;;5137107;27;20456;-43
2021/07/11 10:15:28;;;;;;;5.97;3.53;;;23.20;82.40;;;;;;5119080;27;20436;-42
2021/07/11 10:18:05;;;;;;;3.37;2.00;;;23.00;84.20;;;;;;5136085;27;20788;-44
2021/07/11 10:20:41;;;;;;;3.30;2.10;;;21.50;85.30;;;;;;5116756;27;20436;-43
2021/07/11 10:23:09;;;;;;;2.20;2.00;;;21.10;86.80;;;;;;5118028;27;20519;-42
2021/07/11 10:25:36;;;;;;;2.50;2.30;;;21.10;87.20;;;;;;5134768;27;20493;-41
2021/07/11 10:28:06;;;;;;;3.20;2.50;;;21.00;89.40;;;;;;5135266;27;20428;-42
2021/07/11 10:30:33;;;;;;;3.10;2.70;;;20.70;89.10;;;;;;5135362;27;20472;-42
2021/07/11 10:33:11;;;;;;;2.77;2.47;;;20.70;89.60;;;;;;5118488;27;20424;-42
2021/07/11 10:35:48;;;;;;;2.60;2.40;;;20.90;89.60;;;;;;5136397;27;20419;-42
2021/07/11 10:38:36;;;;;;;2.60;2.40;;;21.00;89.00;;;;;;5137612;27;20412;-44
2021/07/11 10:41:31;;;;;;;4.23;2.47;;;20.60;90.10;;;;;;5137109;27;20429;-35
2021/07/11 10:44:03;;;;;;;2.47;2.27;;;20.50;91.30;;;;;;5134948;27;20519;-35
2021/07/11 10:46:32;;;;;;;2.53;2.33;;;20.50;91.20;;;;;;5136009;27;20484;-34
2021/07/11 10:49:16;;;;;;;3.77;2.60;;;20.50;91.10;;;;;;5133135;27;20408;-39
2021/07/11 10:51:55;;;;;;;2.73;2.47;;;20.20;90.80;;;;;;5133842;27;20468;-35
2021/07/11 10:54:36;;;;;;;4.30;2.83;;;20.00;92.00;;;;;;5134908;28;20632;-36
2021/07/11 10:57:10;;;;;;;5.13;3.23;;;19.90;92.40;;;;;;5134505;28;20548;-36
2021/07/11 10:59:38;;;;;;;3.17;2.70;;;19.90;93.50;;;;;;5134145;28;20472;-35
2021/07/11 11:02:21;;;;;;;4.27;2.83;;;20.00;94.30;;;;;;5116068;28;20417;-35
2021/07/11 11:05:11;;;;;;;3.90;2.50;;;20.00;95.90;;;;;;5135038;28;20439;-35
2021/07/11 11:07:46;;;;;;;4.07;2.87;;;20.10;96.30;;;;;;5136086;28;20427;-34
2021/07/11 11:10:18;;;;;;;3.50;3.20;;;20.30;95.80;;;;;;5135780;28;20431;-35
2021/07/11 11:12:44;;;;;;;5.03;3.00;;;20.60;94.80;;;;;;5131222;28;20457;-36
2021/07/11 11:15:19;;;;;;;3.03;2.60;;;21.00;95.20;;;;;;5115852;28;20429;-35
2021/07/11 11:17:45;;;;;;;4.30;2.57;;;21.50;95.00;;;;;;5097959;28;20418;-35
2021/07/11 11:20:15;;;;;;;3.10;2.80;;;22.20;95.20;;;;;;5119868;28;20795;-35
2021/07/11 11:22:54;;;;;;;3.60;2.57;;;22.80;94.80;;;;;;5137838;28;20206;-35
2021/07/11 11:25:21;;;;;;;9.30;6.23;;;22.90;93.10;;;;;;5137081;28;20428;-34
2021/07/11 11:27:55;;;;;;;6.97;5.30;;;22.40;92.60;;;;;;5137495;28;20420;-34
2021/07/11 11:30:23;;;;;;;6.47;5.20;;;22.10;94.10;;;;;;5137289;28;20504;-35
2021/07/11 11:32:56;;;;;;;7.13;5.17;;;21.80;94.60;;;;;;5136372;28;20921;-35
2021/07/11 11:35:24;;;;;;;5.13;3.90;;;21.40;94.40;;;;;;5112663;28;20445;-35
2021/07/11 11:37:52;;;;;;;3.77;3.20;;;21.10;94.50;;;;;;5096216;28;20729;-35
2021/07/11 11:40:20;;;;;;;4.20;3.70;;;21.00;95.10;;;;;;5076599;28;20450;-34
2021/07/11 11:42:51;;;;;;;3.70;3.40;;;21.10;94.40;;;;;;5094722;28;20885;-34
2021/07/11 11:45:19;;;;;;;3.67;2.40;;;21.20;93.00;;;;;;5094560;28;20438;-34
2021/07/11 11:47:56;;;;;;;2.83;2.53;;;21.10;93.70;;;;;;5094652;28;20505;-33
2021/07/11 11:50:22;;;;;;;3.43;3.13;;;21.10;93.70;;;;;;5122409;28;20539;-33
2021/07/11 11:52:48;;;;;;;3.50;3.20;;;21.10;94.00;;;;;;5135940;28;20405;-35
2021/07/11 11:55:15;;;;;;;5.17;3.20;;;21.20;94.30;;;;;;5137823;27;20429;-34
2021/07/11 11:57:41;;;;;;;3.77;3.37;;;21.10;94.90;;;;;;5121476;27;20289;-36
2021/07/11 12:00:14;;;;;;;3.10;2.80;;;21.10;95.40;;;;;;5140208;27;20425;-42
2021/07/11 12:02:40;;;;;;;4.20;3.77;;;21.20;95.50;;;;;;5139399;27;20412;-43
2021/07/11 12:05:13;;;;;;;3.27;2.97;;;21.70;96.00;;;;;;5138574;27;20512;-42
2021/07/11 12:07:40;;;;;;;2.83;2.53;;;22.20;95.30;;;;;;5139063;27;20274;-40
2021/07/11 12:10:06;;;;;;;3.93;3.50;;;22.80;93.40;;;;;;5138960;27;20420;-41
2021/07/11 12:12:32;;;;;;;3.40;2.60;;;23.30;93.60;;;;;;5137865;27;20457;-42
2021/07/11 12:15:00;;;;;;;3.43;3.10;;;24.00;93.70;;;;;;5138362;27;20436;-42
2021/07/11 12:17:33;;;;;;;5.60;3.17;;;24.70;93.30;;;;;;5136800;27;20465;-42
2021/07/11 12:19:59;;;;;;;3.17;2.87;;;25.70;90.10;;;;;;5137202;27;20439;-42
2021/07/11 12:22:33;;;;;;;5.17;3.33;;;26.30;83.90;;;;;;5136556;27;20499;-40
2021/07/11 12:27:42;;;;;;;2.80;2.60;;;25.60;79.10;;;;;;5138464;27;20648;-40
2021/07/11 12:30:11;;;;;;;2.53;2.33;;;25.10;77.60;;;;;;5137983;27;20436;-42
2021/07/11 12:32:56;;;;;;;2.40;2.20;;;24.50;79.00;;;;;;5138208;27;20434;-42
2021/07/11 12:35:24;;;;;;;2.30;2.10;;;24.00;80.30;;;;;;5137661;27;20823;-41
2021/07/11 12:37:52;;;;;;;2.50;2.13;;;23.40;77.00;;;;;;5137810;27;20421;-41
2021/07/11 12:40:24;;;;;;;2.40;1.97;;;23.10;80.80;;;;;;5137313;27;20471;-43
2021/07/11 12:43:18;;;;;;;2.53;2.33;;;22.90;82.70;;;;;;5137424;27;20424;-42
2021/07/11 12:45:45;;;;;;;4.70;3.20;;;23.00;86.00;;;;;;5138139;27;20463;-43
2021/07/11 12:48:11;;;;;;;3.23;2.60;;;22.80;90.60;;;;;;5138644;27;20416;-42
2021/07/11 12:50:43;;;;;;;3.70;3.17;;;22.30;92.10;;;;;;5139448;27;20533;-42
2021/07/11 12:53:09;;;;;;;5.23;2.90;;;22.10;93.60;;;;;;5139596;27;20550;-41
2021/07/11 12:55:36;;;;;;;5.37;3.03;;;22.00;94.50;;;;;;5139665;27;20587;-42
2021/07/11 12:58:12;;;;;;;5.60;2.90;;;21.90;95.50;;;;;;5139613;27;20163;-43